Strona główna
METAR-TAF:

METAR-TAF

Lotnisko :

Port lotniczy Antwerpia

Antwerpia, Belgia

Szerokość geograficzna: 51-12N, Długość geograficzna: 004-28E, wysokość: 12 m

Aktualna obserwacja pogody

Raport powstał 30 minut temu, godzina 08:20 UTC
Wiatr 9 kt od północny wschód
Temperatura 16°C
Wilgotność 45%
Ciśnienie 1035 hPa
Widzialność 10 km lub więcej
Brak chmur poniżej 1500 m i brak chmur cumulonimbus

METAR: EBAW 280820Z 05009KT CAVOK 16/04 Q1035 NOSIG

czas: 10:50 (08:50 UTC)

Prognoza

Raport powstał 40 minut temu, godzina 08:10 UTC
Prognoza ważna od 28 godzina 09 UTC do 28 godzina 18 UTC
Wiatr 10 kt od wschodnio-północny wschód
Widzialność 10 km lub więcej
Brak chmur poniżej 1500 m i brak chmur cumulonimbus

TAF: EBAW 280810Z 2809/2818 06010KT CAVOK

Obserwacja i prognoza pogody dla ponad 4000 lotnisk (raport METAR i TAF).

Dostępne stacje oznaczono żółtymi i czerwonymi punktami na mapie.

Najedź kursorem aby zobaczyć nazwę stacji.

Kliknij aby zobaczyć obserwacje i prognozy pogody.

Aby zmienić mapę: kliknij na zielony przycisk z czarnym krzyżykiem, aby powiększyć; na zielony przycisk z myślnikiem, aby pomniejszyć; na zielone strzałki, aby przejść do map sąsiednich.


METAR-TAF: